Terminal Aerodrome Forecast
Issued by NWS Albany, NY

Home | Current Version | Previous Version | Text Only | Print | Product List | Glossary On
Versions: 1 2 3 4 5 6 7 8 9 10 11 12 13 14 15 16 17 18 19 20 21 22 23 24 25 26 27 28 29 30 31 32 33 34 35 36 37 38
000
FTUS41 KALY 251139
TAFPOU
TAF
KPOU 251139Z 2512/2612 06008KT 6SM -RA BR OVC015 WS020/14035KT
     FM251800 07012G23KT P6SM VCSH OVC015 WS020/14035KT
     FM252100 06011G22KT P6SM VCSH SCT008 OVC012 PROB30 2521/2602
      4SM -RA BR BKN008
     FM260200 05007KT 3SM -RA BKN008 OVC012
     FM260800 35004KT 2SM -RA BR SCT004 OVC008=

USA.gov is the U.S. government's official web portal to all federal, state and local government web resources and services.